createdAt,value
2019-03-20T00:01:04.299Z,5.07
2019-03-20T00:03:33.404Z,5.00
2019-03-20T00:06:02.751Z,5.83
2019-03-20T00:08:32.060Z,4.00
2019-03-20T00:11:01.173Z,4.50
2019-03-20T00:13:30.295Z,4.80
2019-03-20T00:15:59.404Z,5.17
2019-03-20T00:18:28.765Z,4.30
2019-03-20T00:20:57.861Z,3.90
2019-03-20T00:23:27.283Z,3.73
2019-03-20T00:25:56.372Z,3.67
2019-03-20T00:28:25.489Z,4.53
2019-03-20T00:30:54.599Z,4.00
2019-03-20T00:33:23.680Z,3.30
2019-03-20T00:35:52.859Z,4.23
2019-03-20T00:38:22.017Z,3.60
2019-03-20T00:40:51.224Z,4.57
2019-03-20T00:43:20.624Z,3.77
2019-03-20T00:45:49.730Z,4.47
2019-03-20T00:48:18.820Z,4.00
2019-03-20T00:50:47.920Z,3.80
2019-03-20T00:53:17.005Z,4.10
2019-03-20T00:55:47.524Z,3.60
2019-03-20T00:58:16.613Z,3.20
2019-03-20T01:00:45.744Z,3.57
2019-03-20T01:03:14.887Z,3.63
2019-03-20T01:05:43.995Z,3.67
2019-03-20T01:08:13.110Z,3.53
2019-03-20T01:10:42.208Z,3.33
2019-03-20T01:13:12.304Z,3.03
2019-03-20T01:15:41.407Z,3.33
2019-03-20T01:18:10.496Z,4.00
2019-03-20T01:20:39.631Z,3.50
2019-03-20T01:23:08.760Z,4.60
2019-03-20T01:25:37.885Z,3.23
2019-03-20T01:28:07.034Z,3.13
2019-03-20T01:30:37.199Z,3.60
2019-03-20T01:33:09.688Z,3.50
2019-03-20T01:35:40.034Z,3.30
2019-03-20T01:38:09.208Z,3.50
2019-03-20T01:40:40.257Z,3.00
2019-03-20T01:43:09.365Z,3.00
2019-03-20T01:45:39.098Z,3.23
2019-03-20T01:48:08.233Z,3.30
2019-03-20T01:50:37.485Z,3.40
2019-03-20T01:53:06.588Z,3.30
2019-03-20T01:55:35.683Z,3.20
2019-03-20T01:58:04.809Z,3.27
2019-03-20T02:00:34.011Z,2.83
2019-03-20T02:03:03.174Z,3.47
2019-03-20T02:05:36.268Z,3.20
2019-03-20T02:08:04.138Z,2.50
2019-03-20T02:10:33.232Z,3.07
2019-03-20T02:13:02.389Z,3.40
2019-03-20T02:15:38.681Z,3.37
2019-03-20T02:18:02.532Z,2.93
2019-03-20T02:20:31.650Z,3.00
2019-03-20T02:23:00.744Z,3.20
2019-03-20T02:25:32.299Z,3.17
2019-03-20T02:28:00.675Z,2.90
2019-03-20T02:30:29.817Z,3.03
2019-03-20T02:32:59.151Z,2.37
2019-03-20T02:35:28.276Z,3.30
2019-03-20T02:37:57.380Z,2.20
2019-03-20T02:40:27.051Z,2.90
2019-03-20T02:42:56.547Z,2.77
2019-03-20T02:45:25.738Z,3.40
2019-03-20T02:47:54.836Z,3.00
2019-03-20T02:50:23.927Z,3.07
2019-03-20T02:52:53.377Z,2.50
2019-03-20T02:55:22.465Z,2.70
2019-03-20T02:57:51.566Z,3.40
2019-03-20T03:03:15.549Z,3.13
2019-03-20T03:05:44.652Z,3.77
2019-03-20T03:08:13.751Z,2.47
2019-03-20T03:10:42.837Z,3.30
2019-03-20T03:13:13.046Z,2.93
2019-03-20T03:15:42.119Z,2.60
2019-03-20T03:18:11.268Z,2.60
2019-03-20T03:20:40.395Z,2.40
2019-03-20T03:23:09.519Z,2.73
2019-03-20T03:25:38.627Z,2.80
2019-03-20T03:28:07.706Z,2.40
2019-03-20T03:30:36.918Z,3.00
2019-03-20T03:33:06.073Z,3.47
2019-03-20T03:35:35.180Z,3.27
2019-03-20T03:38:04.361Z,2.97
2019-03-20T03:40:34.970Z,3.20
2019-03-20T03:43:04.126Z,3.93
2019-03-20T03:45:33.228Z,3.93
2019-03-20T03:48:02.367Z,5.97
2019-03-20T03:50:31.454Z,6.53
2019-03-20T03:53:00.593Z,7.07
2019-03-20T03:55:29.690Z,6.87
2019-03-20T03:57:59.899Z,6.33
2019-03-20T04:00:29.339Z,6.70
2019-03-20T04:02:58.835Z,7.10
2019-03-20T04:05:27.944Z,7.60
2019-03-20T04:07:57.055Z,7.93
2019-03-20T04:10:26.164Z,8.30
2019-03-20T04:12:55.279Z,7.97
2019-03-20T04:15:24.657Z,8.30
2019-03-20T04:17:53.740Z,9.00
2019-03-20T04:20:22.841Z,9.00
2019-03-20T04:22:52.109Z,9.40
2019-03-20T04:25:21.254Z,9.40
2019-03-20T04:27:50.388Z,8.77
2019-03-20T04:30:19.558Z,10.27
2019-03-20T04:32:48.658Z,9.60
2019-03-20T04:35:17.746Z,10.00
2019-03-20T04:37:47.948Z,9.97
2019-03-20T04:40:17.112Z,10.47
2019-03-20T04:42:46.310Z,10.90
2019-03-20T04:45:15.529Z,10.63
2019-03-20T04:47:44.640Z,10.80
2019-03-20T04:50:13.816Z,11.13
2019-03-20T04:52:43.095Z,11.57
2019-03-20T04:55:12.762Z,11.90
2019-03-20T04:57:41.887Z,11.80
2019-03-20T05:00:12.579Z,12.23
2019-03-20T05:02:48.031Z,11.73
2019-03-20T05:05:14.273Z,12.63
2019-03-20T05:07:43.939Z,12.40
2019-03-20T05:10:13.089Z,13.43
2019-03-20T05:12:42.182Z,13.17
2019-03-20T05:15:11.291Z,12.83
2019-03-20T05:17:40.467Z,13.60
2019-03-20T05:20:11.353Z,13.97
2019-03-20T05:22:40.479Z,13.10
2019-03-20T05:25:09.701Z,14.37
2019-03-20T05:27:38.882Z,14.30
2019-03-20T05:30:08.291Z,14.67
2019-03-20T05:32:37.443Z,13.67
2019-03-20T05:35:06.653Z,14.87
2019-03-20T05:37:36.812Z,14.67
2019-03-20T05:40:06.019Z,13.70
2019-03-20T05:42:35.141Z,14.30
2019-03-20T05:45:04.585Z,14.27
2019-03-20T05:47:33.689Z,14.13
2019-03-20T05:50:02.812Z,14.50
2019-03-20T05:52:31.919Z,15.03
2019-03-20T05:55:01.024Z,15.03
2019-03-20T05:57:30.141Z,14.80
2019-03-20T05:59:59.252Z,14.90
2019-03-20T06:02:28.364Z,14.97
2019-03-20T06:04:57.475Z,15.50
2019-03-20T06:07:26.605Z,15.93
2019-03-20T06:09:55.684Z,15.60
2019-03-20T06:12:24.824Z,16.17
2019-03-20T06:14:54.189Z,16.23
2019-03-20T06:17:23.320Z,15.50
2019-03-20T06:19:52.413Z,17.53
2019-03-20T06:22:22.590Z,16.57
2019-03-20T06:24:51.796Z,15.57
2019-03-20T06:27:20.912Z,15.70
2019-03-20T06:29:50.041Z,15.53
2019-03-20T06:32:19.153Z,16.30
2019-03-20T06:34:49.032Z,15.10
2019-03-20T06:37:18.268Z,16.73
2019-03-20T06:39:47.367Z,16.70
2019-03-20T06:42:16.529Z,16.20
2019-03-20T06:44:45.736Z,15.70
2019-03-20T06:47:14.839Z,16.90
2019-03-20T06:49:43.923Z,15.80
2019-03-20T06:52:13.423Z,16.80
2019-03-20T06:54:43.604Z,15.70
2019-03-20T06:57:12.717Z,15.50
2019-03-20T07:00:10.828Z,16.80
2019-03-20T07:02:41.671Z,17.37
2019-03-20T07:05:45.188Z,15.87
2019-03-20T07:08:14.286Z,17.33
2019-03-20T07:10:47.545Z,16.27
2019-03-20T07:13:16.673Z,17.50
2019-03-20T07:15:46.039Z,17.30
2019-03-20T07:18:15.244Z,17.20
2019-03-20T07:20:44.340Z,17.97
2019-03-20T07:23:13.498Z,17.77
2019-03-20T07:25:42.677Z,18.60
2019-03-20T07:28:11.813Z,19.37
2019-03-20T07:30:40.918Z,18.57
2019-03-20T07:33:10.021Z,19.70
2019-03-20T07:35:39.141Z,19.70
2019-03-20T07:38:08.364Z,20.13
2019-03-20T07:40:37.734Z,19.73
2019-03-20T07:43:09.212Z,20.03
2019-03-20T07:45:37.711Z,20.17
2019-03-20T07:48:06.840Z,21.47
2019-03-20T07:50:36.021Z,20.20
2019-03-20T07:53:05.541Z,19.00
2019-03-20T07:55:34.641Z,20.73
2019-03-20T07:58:03.734Z,22.00
2019-03-20T08:00:32.845Z,20.90
2019-03-20T08:03:01.984Z,21.07
2019-03-20T08:05:32.172Z,20.33
2019-03-20T08:08:07.360Z,21.33
2019-03-20T08:10:32.081Z,21.43
2019-03-20T08:13:01.198Z,20.30
2019-03-20T08:15:30.376Z,20.90
2019-03-20T08:17:59.465Z,22.07
2019-03-20T08:20:28.599Z,21.90
2019-03-20T08:22:57.688Z,20.83
2019-03-20T08:25:26.783Z,21.13
2019-03-20T08:27:55.897Z,20.20
2019-03-20T08:30:25.046Z,21.40
2019-03-20T08:32:54.424Z,20.93
2019-03-20T08:35:23.541Z,21.10
2019-03-20T08:37:52.680Z,20.10
2019-03-20T08:40:21.773Z,22.63
2019-03-20T08:42:50.883Z,19.80
2019-03-20T08:45:20.036Z,19.70
2019-03-20T08:47:49.224Z,20.07
2019-03-20T08:50:19.226Z,20.50
2019-03-20T08:52:48.593Z,19.37
2019-03-20T08:55:17.712Z,19.60
2019-03-20T08:57:46.959Z,19.80
2019-03-20T09:00:16.679Z,19.50
2019-03-20T09:02:47.369Z,20.57
2019-03-20T09:05:16.697Z,20.33
2019-03-20T09:07:47.422Z,19.70
2019-03-20T09:10:17.796Z,20.33
2019-03-20T09:12:46.904Z,19.87
2019-03-20T09:15:16.113Z,20.00
2019-03-20T09:17:45.310Z,19.50
2019-03-20T09:20:14.669Z,20.30
2019-03-20T09:22:43.804Z,21.53
2019-03-20T09:25:13.894Z,19.13
2019-03-20T09:27:43.537Z,18.93
2019-03-20T09:30:14.298Z,19.60
2019-03-20T09:32:43.464Z,18.30
2019-03-20T09:35:13.168Z,20.47
2019-03-20T09:37:51.246Z,20.13
2019-03-20T09:40:14.080Z,19.00
2019-03-20T09:42:43.230Z,20.03
2019-03-20T09:45:13.367Z,18.57
2019-03-20T09:47:42.690Z,18.40
2019-03-20T09:50:12.925Z,18.30
2019-03-20T09:52:42.168Z,18.73
2019-03-20T09:55:11.485Z,18.53
2019-03-20T09:57:40.791Z,18.33
2019-03-20T10:00:11.772Z,18.00
2019-03-20T10:02:40.945Z,18.47
2019-03-20T10:05:11.169Z,19.70
2019-03-20T10:07:40.365Z,19.50
2019-03-20T10:10:10.026Z,18.97
2019-03-20T10:12:39.232Z,18.93
2019-03-20T10:15:09.217Z,19.07
2019-03-20T10:17:38.465Z,18.63
2019-03-20T10:20:08.279Z,17.90
2019-03-20T10:22:39.003Z,19.10
2019-03-20T10:25:08.621Z,19.23
2019-03-20T10:27:37.853Z,19.73
2019-03-20T10:30:08.548Z,19.43
2019-03-20T10:32:37.715Z,19.70
2019-03-20T10:35:07.754Z,19.70
2019-03-20T10:37:37.989Z,20.40
2019-03-20T10:40:07.945Z,20.97
2019-03-20T10:42:37.104Z,19.87
2019-03-20T10:45:06.829Z,19.50
2019-03-20T10:47:36.004Z,19.30
2019-03-20T10:50:06.029Z,20.67
2019-03-20T10:52:35.298Z,19.20
2019-03-20T10:55:05.038Z,19.70
2019-03-20T10:57:34.268Z,19.37
2019-03-20T11:00:04.797Z,19.77
2019-03-20T11:02:34.543Z,20.20
2019-03-20T11:05:04.299Z,20.27
2019-03-20T11:07:33.896Z,20.87
2019-03-20T11:10:03.432Z,19.73
2019-03-20T11:12:32.635Z,21.30
2019-03-20T11:15:01.841Z,19.50
2019-03-20T11:17:30.984Z,20.40
2019-03-20T11:20:00.341Z,20.33
2019-03-20T11:22:29.672Z,20.70
2019-03-20T11:24:59.839Z,21.43
2019-03-20T11:27:28.980Z,21.13
2019-03-20T11:29:58.176Z,20.43
2019-03-20T11:32:27.577Z,20.73
2019-03-20T11:34:57.014Z,21.90
2019-03-20T11:37:26.171Z,21.47
2019-03-20T11:39:55.317Z,20.63
2019-03-20T11:42:24.485Z,20.80
2019-03-20T11:44:53.631Z,20.57
2019-03-20T11:47:22.830Z,22.17
2019-03-20T11:49:51.975Z,21.50
2019-03-20T11:52:21.161Z,21.57
2019-03-20T11:54:50.560Z,20.53
2019-03-20T11:57:21.674Z,21.33
2019-03-20T11:59:50.600Z,21.50
2019-03-20T12:02:27.973Z,22.23
2019-03-20T12:04:50.810Z,21.20
2019-03-20T12:07:20.012Z,21.10
2019-03-20T12:09:49.180Z,21.80
2019-03-20T12:12:18.375Z,20.93
2019-03-20T12:14:47.520Z,20.60
2019-03-20T12:17:16.726Z,22.43
2019-03-20T12:19:45.861Z,21.33
2019-03-20T12:22:15.052Z,21.53
2019-03-20T12:24:44.393Z,21.10
2019-03-20T12:27:15.345Z,21.97
2019-03-20T12:29:44.490Z,22.93
2019-03-20T12:32:13.641Z,21.40
2019-03-20T12:34:42.947Z,22.13
2019-03-20T12:37:12.160Z,22.40
2019-03-20T12:39:52.871Z,22.57
2019-03-20T12:42:13.309Z,22.10
2019-03-20T12:44:42.461Z,23.63
2019-03-20T12:47:11.936Z,23.20
2019-03-20T12:49:41.096Z,23.03
2019-03-20T12:52:10.248Z,23.00
2019-03-20T12:54:39.460Z,23.70
2019-03-20T12:57:08.645Z,24.03
2019-03-20T12:59:37.781Z,23.17
2019-03-20T13:02:08.220Z,23.53
2019-03-20T13:04:37.579Z,22.50
2019-03-20T13:07:06.751Z,23.57
2019-03-20T13:09:35.907Z,22.90
2019-03-20T13:12:05.064Z,23.73
2019-03-20T13:14:34.240Z,22.87
2019-03-20T13:17:03.402Z,23.03
2019-03-20T13:19:33.144Z,23.60
2019-03-20T13:22:02.352Z,23.20
2019-03-20T13:24:31.924Z,24.37
2019-03-20T13:27:01.073Z,23.80
2019-03-20T13:29:30.229Z,23.37
2019-03-20T13:31:59.378Z,24.00
2019-03-20T13:34:28.551Z,23.47
2019-03-20T13:36:57.756Z,24.63
2019-03-20T13:39:27.023Z,24.47
2019-03-20T13:41:56.509Z,23.37
2019-03-20T13:44:25.697Z,24.73
2019-03-20T13:46:54.872Z,26.23
2019-03-20T13:49:24.069Z,24.73
2019-03-20T13:51:53.220Z,25.27
2019-03-20T13:54:22.416Z,25.63
2019-03-20T13:56:51.564Z,25.70
2019-03-20T13:59:20.720Z,25.40
2019-03-20T14:01:51.239Z,25.83
2019-03-20T14:04:20.452Z,26.47
2019-03-20T14:06:49.653Z,25.33
2019-03-20T14:09:18.823Z,25.47
2019-03-20T14:11:48.360Z,24.10
2019-03-20T14:14:17.653Z,25.17
2019-03-20T14:16:46.806Z,26.53
2019-03-20T14:19:17.039Z,27.13
2019-03-20T14:21:46.196Z,27.13
2019-03-20T14:24:15.369Z,26.83
2019-03-20T14:26:44.500Z,27.27
2019-03-20T14:29:13.655Z,27.70
2019-03-20T14:31:42.803Z,27.60
2019-03-20T14:34:12.005Z,26.40
2019-03-20T14:36:41.549Z,28.30
2019-03-20T14:39:10.724Z,27.73
2019-03-20T14:41:39.888Z,26.73
2019-03-20T14:44:09.168Z,28.33
2019-03-20T14:46:38.638Z,27.50
2019-03-20T14:49:07.833Z,26.97
2019-03-20T14:51:37.000Z,27.10
2019-03-20T14:54:06.151Z,29.60
2019-03-20T14:56:35.436Z,28.77
2019-03-20T14:59:05.223Z,21.10
2019-03-20T15:01:34.384Z,28.70
2019-03-20T15:04:03.622Z,29.00
2019-03-20T15:06:32.775Z,29.30
2019-03-20T15:09:01.968Z,28.93
2019-03-20T15:11:31.964Z,27.90
2019-03-20T15:14:01.156Z,28.70
2019-03-20T15:16:30.352Z,27.80
2019-03-20T15:18:59.548Z,28.70
2019-03-20T15:21:28.698Z,29.20
2019-03-20T15:23:57.857Z,28.37
2019-03-20T15:26:27.333Z,26.63
2019-03-20T15:28:56.499Z,26.83
2019-03-20T15:31:25.669Z,28.90
2019-03-20T15:33:54.864Z,28.43
2019-03-20T15:36:24.107Z,26.63
2019-03-20T15:38:53.297Z,26.80
2019-03-20T15:41:22.489Z,26.80
2019-03-20T15:44:01.960Z,27.23
2019-03-20T15:46:22.564Z,27.20
2019-03-20T15:48:51.753Z,27.27
2019-03-20T15:51:20.912Z,27.87
2019-03-20T15:53:50.124Z,26.80
2019-03-20T15:56:19.279Z,26.20
2019-03-20T15:58:48.433Z,27.20
2019-03-20T16:01:17.627Z,37.67
2019-03-20T16:03:46.783Z,28.47
2019-03-20T16:06:15.961Z,28.20
2019-03-20T16:08:45.119Z,25.80
2019-03-20T16:11:14.313Z,29.50
2019-03-20T16:13:43.466Z,28.43
2019-03-20T16:16:12.634Z,28.80
2019-03-20T16:18:41.809Z,27.47
2019-03-20T16:21:11.240Z,26.47
2019-03-20T16:23:44.034Z,27.47
2019-03-20T16:26:13.208Z,29.70
2019-03-20T16:28:42.824Z,28.00
2019-03-20T16:31:11.967Z,27.40
2019-03-20T16:33:41.144Z,28.27
2019-03-20T16:36:10.295Z,30.00
2019-03-20T16:38:39.484Z,27.97
2019-03-20T16:41:16.474Z,29.10
2019-03-20T16:43:39.540Z,29.93
2019-03-20T16:46:08.746Z,28.27
2019-03-20T16:48:37.963Z,28.47
2019-03-20T16:51:07.132Z,26.77
2019-03-20T16:53:36.298Z,29.07
2019-03-20T16:56:05.512Z,29.53
2019-03-20T16:58:35.655Z,30.00
2019-03-20T17:01:04.892Z,29.93
2019-03-20T17:03:34.051Z,28.67
2019-03-20T17:06:03.300Z,28.00
2019-03-20T17:08:32.480Z,29.90
2019-03-20T17:11:01.653Z,29.03
2019-03-20T17:13:30.888Z,30.97
2019-03-20T17:16:00.059Z,30.70
2019-03-20T17:18:29.200Z,29.00
2019-03-20T17:20:58.382Z,30.00
2019-03-20T17:23:27.536Z,30.80
2019-03-20T17:25:56.705Z,31.13
2019-03-20T17:28:25.848Z,31.20
2019-03-20T17:30:55.013Z,32.37
2019-03-20T17:33:24.155Z,31.43
2019-03-20T17:35:53.612Z,30.00
2019-03-20T17:38:22.774Z,28.70
2019-03-20T17:40:51.942Z,31.37
2019-03-20T17:43:21.082Z,30.60
2019-03-20T17:45:50.256Z,30.40
2019-03-20T17:48:19.504Z,29.93
2019-03-20T17:50:48.673Z,31.17
2019-03-20T17:53:17.853Z,30.63
2019-03-20T17:55:47.027Z,28.40
2019-03-20T17:58:16.205Z,30.87
2019-03-20T18:00:46.867Z,31.00
2019-03-20T18:03:16.014Z,31.10
2019-03-20T18:05:45.532Z,30.37
2019-03-20T18:08:14.688Z,30.63
2019-03-20T18:10:43.843Z,31.73
2019-03-20T18:13:13.009Z,32.20
2019-03-20T18:15:42.166Z,30.40
2019-03-20T18:18:11.345Z,31.70
2019-03-20T18:20:40.569Z,32.77
2019-03-20T18:23:09.748Z,29.90
2019-03-20T18:25:39.190Z,31.17
2019-03-20T18:28:08.370Z,30.63
2019-03-20T18:30:37.795Z,31.07
2019-03-20T18:33:07.078Z,29.30
2019-03-20T18:35:36.297Z,31.17
2019-03-20T18:38:05.949Z,31.50
2019-03-20T18:40:35.181Z,31.90
2019-03-20T18:43:04.627Z,31.23
2019-03-20T18:45:33.873Z,32.03
2019-03-20T18:48:03.150Z,30.97
2019-03-20T18:50:32.376Z,29.17
2019-03-20T18:53:02.543Z,31.30
2019-03-20T18:55:31.764Z,31.30
2019-03-20T18:58:01.000Z,32.60
2019-03-20T19:00:30.339Z,32.40
2019-03-20T19:02:59.688Z,29.10
2019-03-20T19:05:33.066Z,30.20
2019-03-20T19:08:02.232Z,30.83
2019-03-20T19:10:31.654Z,31.63
2019-03-20T19:13:00.910Z,31.43
2019-03-20T19:15:30.216Z,32.10
2019-03-20T19:17:59.376Z,32.23
2019-03-20T19:20:28.531Z,30.57
2019-03-20T19:22:57.695Z,30.83
2019-03-20T19:25:26.847Z,32.77
2019-03-20T19:27:56.011Z,31.67
2019-03-20T19:30:25.300Z,32.10
2019-03-20T19:32:54.516Z,32.30
2019-03-20T19:35:23.671Z,30.10
2019-03-20T19:37:52.826Z,31.13
2019-03-20T19:40:22.136Z,29.97
2019-03-20T19:42:51.304Z,30.67
2019-03-20T19:45:20.492Z,36.57
2019-03-20T19:47:49.648Z,36.53
2019-03-20T19:50:18.881Z,32.67
2019-03-20T19:52:48.074Z,30.80
2019-03-20T19:55:17.215Z,31.67
2019-03-20T19:57:46.472Z,33.03
2019-03-20T20:00:16.498Z,32.10
2019-03-20T20:02:45.810Z,32.50
2019-03-20T20:05:16.291Z,31.57
2019-03-20T20:07:45.989Z,34.10
2019-03-20T20:10:15.260Z,31.47
2019-03-20T20:12:45.589Z,33.47
2019-03-20T20:15:18.256Z,32.40
2019-03-20T20:17:47.777Z,32.60
2019-03-20T20:20:19.594Z,33.50
2019-03-20T20:22:48.872Z,32.33
2019-03-20T20:25:19.352Z,32.73
2019-03-20T20:27:48.667Z,33.23
2019-03-20T20:30:20.915Z,33.00
2019-03-20T20:32:50.142Z,34.43
2019-03-20T20:35:19.500Z,35.77
2019-03-20T20:37:48.794Z,34.10
2019-03-20T20:40:19.167Z,35.00
2019-03-20T20:42:48.429Z,33.67
2019-03-20T20:45:18.190Z,33.20
2019-03-20T20:47:47.407Z,33.97
2019-03-20T20:50:19.811Z,33.33
2019-03-20T20:52:49.165Z,34.53
2019-03-20T20:55:20.732Z,34.00
2019-03-20T20:57:50.090Z,33.90
2019-03-20T21:00:19.640Z,33.63
2019-03-20T21:02:49.138Z,33.27
2019-03-20T21:05:18.750Z,33.40
2019-03-20T21:07:48.110Z,37.50
2019-03-20T21:10:18.800Z,33.93
2019-03-20T21:12:56.120Z,35.03
2019-03-20T21:15:35.599Z,34.73
2019-03-20T21:18:30.069Z,36.47
2019-03-20T21:20:59.523Z,33.70
2019-03-20T21:23:37.138Z,33.77
2019-03-20T21:26:06.728Z,33.50
2019-03-20T21:28:58.204Z,33.37
2019-03-20T21:31:46.660Z,26.20
2019-03-20T21:34:35.121Z,31.13
2019-03-20T21:37:11.437Z,33.67
2019-03-20T21:39:40.909Z,31.53
2019-03-20T21:42:32.117Z,31.93
2019-03-20T21:45:25.918Z,31.90
2019-03-20T21:47:55.436Z,32.80
2019-03-20T21:50:40.324Z,33.13
2019-03-20T21:53:10.744Z,33.90
2019-03-20T21:55:58.106Z,33.00
2019-03-20T21:58:34.745Z,32.57
2019-03-20T22:01:21.962Z,31.13
2019-03-20T22:03:51.475Z,32.80
2019-03-20T22:06:38.892Z,32.63
2019-03-20T22:09:20.496Z,34.13
2019-03-20T22:12:07.907Z,33.50
2019-03-20T22:14:37.437Z,33.27
2019-03-20T22:17:24.830Z,33.33
2019-03-20T22:20:00.538Z,26.70
2019-03-20T22:22:51.862Z,35.23
2019-03-20T22:25:46.116Z,34.57
2019-03-20T22:28:33.484Z,33.37
2019-03-20T22:31:02.997Z,34.80
2019-03-20T22:33:50.625Z,33.63
2019-03-20T22:36:22.065Z,34.67
2019-03-20T22:39:13.286Z,36.07
2019-03-20T22:42:00.612Z,32.47
2019-03-20T22:44:30.063Z,33.00
2019-03-20T22:47:17.084Z,33.40
2019-03-20T22:50:05.537Z,33.60
2019-03-20T22:52:44.921Z,35.00
2019-03-20T22:55:36.948Z,34.90
2019-03-20T22:58:25.705Z,33.60
2019-03-20T23:00:55.336Z,34.43
2019-03-20T23:03:31.091Z,34.20
2019-03-20T23:06:01.716Z,34.43
2019-03-20T23:08:31.140Z,35.87
2019-03-20T23:11:00.934Z,35.40
2019-03-20T23:13:40.724Z,35.83
2019-03-20T23:16:02.163Z,37.20
2019-03-20T23:18:31.582Z,36.67
2019-03-20T23:21:01.410Z,37.33
2019-03-20T23:23:31.498Z,36.97
2019-03-20T23:26:00.944Z,37.87
2019-03-20T23:28:30.383Z,37.80
2019-03-20T23:30:59.823Z,39.00
2019-03-20T23:33:29.605Z,38.20
2019-03-20T23:36:00.224Z,40.93
2019-03-20T23:38:29.661Z,42.07
2019-03-20T23:41:00.165Z,42.97
2019-03-20T23:43:29.908Z,43.97
2019-03-20T23:45:59.353Z,44.10
2019-03-20T23:48:31.379Z,42.50
2019-03-20T23:51:02.926Z,43.63
2019-03-20T23:53:33.565Z,45.67
2019-03-20T23:56:03.013Z,45.10
2019-03-20T23:58:32.464Z,43.13
